Time;durP1;ratioP1;P1;durP2;ratioP2;P2;SDS_P1;SDS_P2;PMS_P1;PMS_P2;Temp;Humidity;BMP_temperature;BMP_pressure;BME280_temperature;BME280_humidity;BME280_pressure;Samples;Min_cycle;Max_cycle;Signal;HPM_P1;HPM_P2
2020/12/28 00:00:18;;;;;;;4.32;3.22;;;5.90;97.50;;;;;;5048962;28;20407;-79
2020/12/28 00:02:45;;;;;;;5.28;4.78;;;6.00;97.60;;;;;;5030753;28;20041;-79
2020/12/28 00:05:13;;;;;;;4.88;4.38;;;6.00;97.60;;;;;;5032294;28;20029;-79
2020/12/28 00:07:39;;;;;;;8.23;7.07;;;6.00;97.50;;;;;;5047516;28;20052;-79
2020/12/28 00:10:10;;;;;;;9.45;7.72;;;6.00;97.50;;;;;;5050527;28;20045;-79
2020/12/28 00:12:47;;;;;;;6.75;6.13;;;6.00;97.50;;;;;;5027933;28;20029;-79
2020/12/28 00:15:33;;;;;;;5.45;4.93;;;6.00;97.50;;;;;;5046799;28;20052;-79
2020/12/28 00:18:01;;;;;;;6.93;6.22;;;6.00;97.50;;;;;;5015254;28;20041;-79
2020/12/28 00:20:30;;;;;;;6.88;6.28;;;6.00;97.50;;;;;;5032223;28;20527;-79
2020/12/28 00:22:57;;;;;;;7.82;6.70;;;5.90;97.50;;;;;;5030887;28;20041;-79
2020/12/28 00:25:27;;;;;;;6.82;5.63;;;5.90;97.50;;;;;;5047834;28;20052;-79
2020/12/28 00:27:55;;;;;;;7.05;5.75;;;5.90;97.60;;;;;;5048928;28;20742;-79
2020/12/28 00:30:21;;;;;;;8.00;7.20;;;5.90;97.60;;;;;;5048422;28;20041;-79
2020/12/28 00:32:48;;;;;;;10.18;7.85;;;5.90;97.50;;;;;;5047100;28;20519;-78
2020/12/28 00:35:15;;;;;;;6.18;5.30;;;5.90;97.50;;;;;;5034268;28;20049;-79
2020/12/28 00:37:42;;;;;;;10.38;8.88;;;5.90;97.50;;;;;;5046626;28;20424;-79
2020/12/28 00:40:09;;;;;;;8.20;7.32;;;5.90;97.60;;;;;;5048308;28;20037;-79
2020/12/28 00:42:37;;;;;;;7.82;6.43;;;5.90;97.60;;;;;;5045161;28;20055;-79
2020/12/28 00:45:07;;;;;;;8.43;7.55;;;5.90;97.60;;;;;;5047035;28;20041;-79
2020/12/28 00:47:36;;;;;;;8.80;7.70;;;5.90;97.60;;;;;;5047780;28;20048;-79
2020/12/28 00:50:04;;;;;;;13.40;10.57;;;6.00;97.60;;;;;;5032314;28;20673;-79
2020/12/28 00:52:31;;;;;;;12.20;8.80;;;6.00;97.60;;;;;;5034388;28;20045;-78
2020/12/28 00:54:58;;;;;;;12.02;10.20;;;6.00;97.60;;;;;;5015255;28;20029;-79
2020/12/28 00:57:24;;;;;;;16.10;11.32;;;6.00;97.60;;;;;;5029026;28;20044;-80
2020/12/28 00:59:51;;;;;;;11.60;10.35;;;6.00;97.50;;;;;;5014812;28;20041;-77
2020/12/28 01:02:26;;;;;;;9.02;7.57;;;5.90;97.50;;;;;;5030954;28;20049;-78
2020/12/28 01:05:01;;;;;;;12.68;10.75;;;5.90;97.50;;;;;;5002539;28;20399;-78
2020/12/28 01:07:34;;;;;;;;;;;6.00;97.60;;;;;;5034439;28;20040;-78
2020/12/28 01:10:12;;;;;;;12.20;10.48;;;5.90;97.60;;;;;;5030713;28;20906;-77
2020/12/28 01:12:39;;;;;;;9.25;8.35;;;6.00;97.60;;;;;;5039240;28;20051;-76
2020/12/28 01:15:09;;;;;;;6.88;6.18;;;6.00;97.80;;;;;;5031556;28;20036;-77
2020/12/28 01:17:42;;;;;;;8.77;7.03;;;5.90;97.60;;;;;;5052034;28;20829;-76
2020/12/28 01:20:18;;;;;;;13.02;9.63;;;6.00;97.60;;;;;;5033334;28;20029;-77
2020/12/28 01:22:50;;;;;;;12.23;10.98;;;6.00;97.60;;;;;;5049211;28;20037;-78
2020/12/28 01:25:17;;;;;;;15.48;12.77;;;6.00;97.50;;;;;;5045036;28;20029;-78
2020/12/28 01:27:54;;;;;;;14.90;12.18;;;6.00;97.50;;;;;;5044825;28;20048;-79
2020/12/28 01:30:22;;;;;;;13.35;10.80;;;5.90;97.50;;;;;;5033024;28;20484;-82
2020/12/28 01:32:49;;;;;;;12.52;10.45;;;5.90;97.50;;;;;;5015553;28;20060;-78
2020/12/28 01:35:30;;;;;;;12.13;10.32;;;5.90;97.50;;;;;;5029378;28;20043;-78
2020/12/28 01:37:57;;;;;;;13.95;10.48;;;5.90;97.50;;;;;;5015196;28;20036;-78
2020/12/28 01:40:25;;;;;;;15.73;11.73;;;5.90;97.50;;;;;;5046829;28;20038;-78
2020/12/28 01:42:51;;;;;;;11.13;9.93;;;5.90;97.50;;;;;;5036914;28;20046;-78
2020/12/28 01:45:17;;;;;;;11.02;9.30;;;5.90;97.50;;;;;;5019114;28;20040;-78
2020/12/28 01:47:49;;;;;;;10.02;8.45;;;5.90;97.50;;;;;;5016340;28;20056;-78
2020/12/28 01:50:16;;;;;;;11.68;10.50;;;5.90;97.50;;;;;;5016125;28;20476;-78
2020/12/28 01:52:43;;;;;;;11.05;8.70;;;5.90;97.50;;;;;;5032044;28;20032;-78
2020/12/28 01:55:09;;;;;;;13.07;9.35;;;5.90;97.50;;;;;;5017732;28;20037;-78
2020/12/28 01:57:51;;;;;;;10.10;8.93;;;5.90;97.50;;;;;;5048307;28;20048;-78
2020/12/28 02:00:18;;;;;;;7.85;6.85;;;5.80;97.40;;;;;;5033728;28;20025;-78
2020/12/28 02:02:55;;;;;;;10.88;9.15;;;5.80;97.40;;;;;;5034456;28;20053;-78
2020/12/28 02:05:42;;;;;;;14.00;9.73;;;5.80;97.40;;;;;;5047870;28;20060;-78
2020/12/28 02:08:08;;;;;;;10.27;8.60;;;5.80;97.50;;;;;;5020234;28;20033;-78
2020/12/28 02:10:36;;;;;;;10.25;8.75;;;5.80;97.50;;;;;;5050699;28;20044;-79
2020/12/28 02:13:03;;;;;;;9.98;8.30;;;5.80;97.50;;;;;;5032645;28;20044;-79
2020/12/28 02:15:35;;;;;;;10.17;6.83;;;5.70;97.40;;;;;;5003567;28;20033;-79
2020/12/28 02:18:20;;;;;;;9.07;7.35;;;5.70;97.50;;;;;;5035214;28;20040;-79
2020/12/28 02:21:00;;;;;;;9.88;7.45;;;5.70;97.50;;;;;;5036801;28;20044;-78
2020/12/28 02:23:27;;;;;;;9.18;8.10;;;5.70;97.50;;;;;;5034734;28;20041;-78
2020/12/28 02:25:54;;;;;;;8.65;6.93;;;5.70;97.50;;;;;;5020782;28;20053;-79
2020/12/28 02:28:21;;;;;;;6.50;5.90;;;5.70;97.50;;;;;;5051807;28;20044;-78
2020/12/28 02:30:48;;;;;;;6.65;6.03;;;5.70;97.50;;;;;;5031840;28;20025;-78
2020/12/28 02:33:35;;;;;;;7.85;7.05;;;5.70;97.50;;;;;;5049684;28;20052;-78
2020/12/28 02:36:15;;;;;;;6.50;5.55;;;5.70;97.50;;;;;;5055716;28;20045;-79
2020/12/28 02:38:41;;;;;;;6.72;6.03;;;5.70;97.50;;;;;;5003006;28;20041;-79
2020/12/28 02:41:07;;;;;;;6.72;5.93;;;5.70;97.60;;;;;;5014530;28;20037;-79
2020/12/28 02:43:54;;;;;;;8.55;6.45;;;5.70;97.60;;;;;;5026029;28;20206;-79
2020/12/28 02:46:40;;;;;;;7.05;6.13;;;5.70;97.50;;;;;;5035661;28;20044;-79
2020/12/28 02:49:25;;;;;;;7.93;7.15;;;5.70;97.50;;;;;;5036938;28;20399;-79
2020/12/28 02:52:10;;;;;;;11.15;8.02;;;5.70;97.80;;;;;;5034653;28;20033;-79
2020/12/28 02:54:55;;;;;;;7.63;6.93;;;5.70;97.50;;;;;;5035980;28;20033;-79
2020/12/28 02:57:40;;;;;;;9.30;7.18;;;5.70;97.50;;;;;;5021739;28;20044;-79
2020/12/28 03:00:25;;;;;;;7.30;6.10;;;5.70;97.50;;;;;;5039651;28;20040;-79
2020/12/28 03:03:11;;;;;;;8.10;5.90;;;5.70;97.50;;;;;;5036437;28;20476;-79
2020/12/28 03:05:56;;;;;;;6.47;5.05;;;5.70;97.80;;;;;;5008209;28;20037;-79
2020/12/28 03:08:43;;;;;;;7.38;4.68;;;5.70;97.50;;;;;;5034294;28;20045;-80
2020/12/28 03:11:28;;;;;;;8.35;6.63;;;5.70;97.50;;;;;;5024324;28;20029;-80
2020/12/28 03:14:13;;;;;;;7.45;6.20;;;5.70;97.50;;;;;;5048347;28;20044;-79
2020/12/28 03:16:58;;;;;;;7.72;6.43;;;5.70;97.50;;;;;;5050048;28;20052;-79
2020/12/28 03:19:43;;;;;;;7.70;6.57;;;5.70;97.50;;;;;;5040207;28;20048;-80
2020/12/28 03:22:28;;;;;;;11.95;6.53;;;5.60;97.40;;;;;;5050162;28;20060;-80
2020/12/28 03:25:13;;;;;;;8.60;5.82;;;5.60;97.40;;;;;;5036291;28;20060;-79
2020/12/28 03:28:00;;;;;;;6.55;5.32;;;5.60;97.40;;;;;;5020184;28;20510;-79
2020/12/28 03:30:58;;;;;;;7.63;5.78;;;5.60;97.40;;;;;;5044983;28;20052;-79
2020/12/28 03:33:43;;;;;;;9.23;7.10;;;5.60;97.40;;;;;;5022569;28;20052;-80
2020/12/28 03:36:28;;;;;;;9.75;7.57;;;5.60;97.40;;;;;;5051899;28;20048;-80
2020/12/28 03:39:14;;;;;;;8.30;6.97;;;5.60;97.40;;;;;;5031897;28;20044;-80
2020/12/28 03:41:59;;;;;;;10.88;6.85;;;5.60;97.40;;;;;;5048028;28;20032;-80
2020/12/28 03:44:44;;;;;;;7.85;5.43;;;5.60;97.40;;;;;;5050428;28;20045;-80
2020/12/28 03:47:30;;;;;;;9.85;7.28;;;5.60;97.40;;;;;;5030922;28;20037;-79
2020/12/28 03:50:14;;;;;;;7.78;6.10;;;5.70;97.40;;;;;;5049140;28;20045;-80
2020/12/28 03:53:13;;;;;;;8.55;6.45;;;5.70;97.40;;;;;;5021956;28;20041;-80
2020/12/28 03:56:12;;;;;;;8.30;6.78;;;5.60;97.30;;;;;;5038853;28;20049;-80
2020/12/28 03:58:57;;;;;;;12.15;8.45;;;5.70;97.30;;;;;;5048529;28;20040;-79
2020/12/28 04:01:42;;;;;;;9.95;7.03;;;5.60;97.30;;;;;;5016048;28;20049;-80
2020/12/28 04:04:32;;;;;;;12.50;6.70;;;5.60;97.30;;;;;;5021554;28;20060;-79
2020/12/28 04:07:31;;;;;;;9.02;7.15;;;5.60;97.30;;;;;;5037770;28;20056;-79
2020/12/28 04:10:21;;;;;;;11.23;7.50;;;5.60;97.30;;;;;;5032534;28;20052;-79
2020/12/28 04:13:16;;;;;;;13.48;9.23;;;5.50;97.20;;;;;;5019774;28;20037;-79
2020/12/28 04:15:42;;;;;;;13.57;8.15;;;5.50;97.00;;;;;;5034103;28;20685;-79
2020/12/28 04:18:09;;;;;;;11.00;7.80;;;5.50;97.10;;;;;;5048017;28;20052;-79
2020/12/28 04:20:35;;;;;;;11.38;8.50;;;5.50;97.00;;;;;;5015407;28;20041;-80
2020/12/28 04:23:02;;;;;;;11.88;8.00;;;5.40;97.00;;;;;;5000477;28;20048;-80
2020/12/28 04:25:28;;;;;;;10.77;7.53;;;5.40;97.00;;;;;;5032357;28;20052;-80
2020/12/28 04:27:54;;;;;;;11.10;7.63;;;5.40;97.10;;;;;;5031586;28;20718;-80
2020/12/28 04:30:21;;;;;;;10.00;5.88;;;5.40;97.10;;;;;;5018534;28;20037;-79
2020/12/28 04:32:48;;;;;;;8.43;6.67;;;5.40;97.10;;;;;;5050501;28;20057;-79
2020/12/28 04:35:14;;;;;;;8.77;6.47;;;5.40;97.10;;;;;;5049893;28;20060;-80
2020/12/28 04:37:40;;;;;;;10.77;6.73;;;5.40;97.20;;;;;;5031079;28;20053;-80
2020/12/28 04:40:07;;;;;;;8.15;5.97;;;5.40;97.20;;;;;;5017052;28;20052;-80
2020/12/28 04:42:39;;;;;;;7.75;6.10;;;5.40;97.20;;;;;;5018334;28;20055;-80
2020/12/28 04:45:05;;;;;;;10.07;6.93;;;5.40;97.20;;;;;;5034809;28;20384;-80
2020/12/28 04:47:32;;;;;;;9.27;6.80;;;5.40;97.20;;;;;;5034620;28;20294;-79
2020/12/28 04:49:59;;;;;;;8.98;7.00;;;5.50;97.20;;;;;;5053304;28;20045;-80
2020/12/28 04:52:27;;;;;;;12.45;8.73;;;5.40;97.10;;;;;;5034076;28;20033;-80
2020/12/28 04:54:53;;;;;;;13.50;8.20;;;5.40;97.10;;;;;;5019172;28;20048;-80
2020/12/28 04:57:20;;;;;;;11.88;7.80;;;5.40;97.10;;;;;;5051968;28;20523;-80
2020/12/28 04:59:53;;;;;;;9.57;6.55;;;5.30;97.10;;;;;;5054058;28;20048;-80
2020/12/28 05:02:21;;;;;;;8.07;6.30;;;5.30;97.10;;;;;;5050622;28;20040;-80
2020/12/28 05:04:47;;;;;;;10.60;7.20;;;5.30;97.10;;;;;;5052116;28;20655;-80
2020/12/28 05:07:14;;;;;;;9.30;7.10;;;5.30;97.10;;;;;;5023177;28;20048;-80
2020/12/28 05:09:40;;;;;;;9.85;6.93;;;5.30;97.10;;;;;;5018903;28;20033;-80
2020/12/28 05:12:08;;;;;;;11.43;5.30;;;5.20;97.20;;;;;;5052037;28;20033;-80
2020/12/28 05:14:35;;;;;;;9.77;6.13;;;5.20;97.20;;;;;;5035636;28;20289;-80
2020/12/28 05:17:07;;;;;;;8.15;6.03;;;5.30;97.30;;;;;;5018935;28;20044;-79
2020/12/28 05:19:34;;;;;;;;;;;5.30;97.30;;;;;;5051354;28;20049;-80
2020/12/28 05:22:01;;;;;;;8.15;6.00;;;5.30;97.30;;;;;;5050474;28;20367;-80
2020/12/28 05:24:28;;;;;;;8.00;5.35;;;5.20;97.50;;;;;;5002681;28;20041;-80
2020/12/28 05:26:57;;;;;;;9.25;6.25;;;5.20;97.20;;;;;;4985130;28;20042;-80
2020/12/28 05:29:25;;;;;;;9.05;6.05;;;5.20;97.30;;;;;;5034764;28;20471;-80
2020/12/28 05:31:53;;;;;;;7.10;4.70;;;5.20;97.30;;;;;;5051749;28;20053;-80
2020/12/28 05:34:27;;;;;;;8.10;5.20;;;5.20;97.30;;;;;;5052217;28;20396;-83
2020/12/28 05:36:56;;;;;;;10.73;5.63;;;5.20;97.50;;;;;;5050509;28;20037;-80
2020/12/28 05:39:24;;;;;;;11.27;5.83;;;5.20;97.20;;;;;;5017880;28;20045;-80
2020/12/28 05:42:00;;;;;;;7.93;5.30;;;5.10;97.10;;;;;;5051973;28;20048;-79
2020/12/28 05:44:26;;;;;;;8.57;4.70;;;5.10;97.20;;;;;;5050286;28;20037;-80
2020/12/28 05:47:08;;;;;;;7.22;4.38;;;5.00;97.20;;;;;;5019094;28;20033;-78
2020/12/28 05:49:42;;;;;;;9.53;5.30;;;5.00;97.40;;;;;;5017630;28;20495;-80
2020/12/28 05:52:13;;;;;;;9.82;5.57;;;5.00;97.40;;;;;;5031522;28;20033;-80
2020/12/28 05:54:40;;;;;;;9.68;6.88;;;5.00;97.40;;;;;;5035048;28;20037;-80
2020/12/28 05:57:08;;;;;;;11.77;6.60;;;5.00;97.30;;;;;;5034572;28;20045;-79
2020/12/28 05:59:36;;;;;;;10.90;6.23;;;5.00;97.30;;;;;;5053041;28;20048;-79
2020/12/28 06:02:06;;;;;;;11.10;6.65;;;4.90;97.20;;;;;;5018534;28;20392;-79
2020/12/28 06:04:32;;;;;;;11.80;6.82;;;5.00;97.20;;;;;;5051087;28;20048;-79
2020/12/28 06:07:01;;;;;;;11.93;6.97;;;5.00;97.20;;;;;;5050970;28;20040;-80
2020/12/28 06:09:27;;;;;;;13.90;7.80;;;5.00;97.10;;;;;;5017763;28;20677;-80
2020/12/28 06:12:05;;;;;;;14.80;8.25;;;5.00;97.10;;;;;;4999052;28;20053;-80
2020/12/28 06:14:40;;;;;;;16.57;8.90;;;5.00;97.00;;;;;;5054903;28;20045;-80
2020/12/28 06:17:11;;;;;;;16.03;9.87;;;5.00;96.90;;;;;;5020577;28;20045;-80
2020/12/28 06:19:40;;;;;;;14.45;9.68;;;4.90;96.80;;;;;;5017632;28;20044;-80
2020/12/28 06:22:23;;;;;;;16.13;10.32;;;4.90;96.70;;;;;;5032604;28;20056;-80
2020/12/28 06:25:02;;;;;;;15.15;10.25;;;4.80;96.70;;;;;;5037830;28;20044;-80
2020/12/28 06:27:32;;;;;;;16.07;10.47;;;4.80;96.70;;;;;;5018124;28;20036;-80
2020/12/28 06:30:15;;;;;;;13.65;10.50;;;4.70;96.80;;;;;;5032999;28;20032;-80
2020/12/28 06:32:43;;;;;;;17.85;11.35;;;4.70;96.90;;;;;;5003616;28;20080;-79
2020/12/28 06:35:12;;;;;;;13.40;10.65;;;4.80;96.90;;;;;;5034254;28;20472;-80
2020/12/28 06:37:43;;;;;;;20.45;12.35;;;4.80;96.90;;;;;;5047025;28;20043;-80
2020/12/28 06:40:12;;;;;;;14.60;11.60;;;4.80;96.90;;;;;;4994917;28;20047;-80
2020/12/28 06:42:40;;;;;;;14.25;10.98;;;4.80;96.90;;;;;;5047405;28;20731;-80
2020/12/28 06:45:15;;;;;;;15.70;11.57;;;4.80;97.00;;;;;;5033081;28;20044;-80
2020/12/28 06:47:44;;;;;;;15.00;11.13;;;4.80;97.00;;;;;;5020034;28;20045;-79
2020/12/28 06:50:11;;;;;;;18.60;12.02;;;4.80;97.00;;;;;;5016451;28;20029;-80
2020/12/28 06:52:37;;;;;;;14.38;11.15;;;4.80;97.00;;;;;;5032906;28;20464;-80
2020/12/28 06:55:11;;;;;;;20.48;11.57;;;4.80;97.00;;;;;;5049155;28;20408;-80
2020/12/28 06:57:38;;;;;;;14.90;10.50;;;4.80;96.90;;;;;;5049253;28;20036;-80
2020/12/28 07:00:17;;;;;;;13.20;9.48;;;4.80;97.00;;;;;;5051142;28;20037;-80
2020/12/28 07:02:49;;;;;;;15.63;11.13;;;4.80;97.00;;;;;;5031453;28;20040;-80
2020/12/28 07:05:22;;;;;;;18.80;11.68;;;4.80;97.00;;;;;;5016618;28;20052;-80
2020/12/28 07:07:49;;;;;;;16.30;10.02;;;4.80;97.00;;;;;;5033640;28;20067;-80
2020/12/28 07:10:20;;;;;;;16.83;10.07;;;4.80;97.00;;;;;;5032480;28;20033;-79
2020/12/28 07:12:47;;;;;;;15.48;10.90;;;4.70;97.00;;;;;;5014561;28;20040;-80
2020/12/28 07:15:18;;;;;;;17.97;10.30;;;4.60;97.00;;;;;;5049551;28;20037;-83
2020/12/28 07:17:45;;;;;;;16.33;10.30;;;4.60;97.00;;;;;;5049559;28;20041;-80
2020/12/28 07:20:13;;;;;;;18.80;10.03;;;4.50;97.10;;;;;;4999818;28;20041;-79
2020/12/28 07:22:43;;;;;;;14.63;9.57;;;4.40;97.20;;;;;;5030722;28;20051;-81
2020/12/28 07:25:12;;;;;;;15.43;9.45;;;4.40;97.30;;;;;;4997147;28;20048;-78
2020/12/28 07:27:40;;;;;;;13.27;9.35;;;4.40;97.40;;;;;;5047746;28;20053;-79
2020/12/28 07:30:14;;;;;;;17.27;10.40;;;4.50;97.40;;;;;;5030207;28;20381;-79
2020/12/28 07:32:41;;;;;;;14.10;9.50;;;4.50;97.40;;;;;;5045463;28;20090;-79
2020/12/28 07:35:08;;;;;;;21.17;12.20;;;4.50;97.40;;;;;;5016569;28;20043;-79
2020/12/28 07:37:39;;;;;;;18.80;10.07;;;4.50;97.30;;;;;;5031062;28;20530;-79
2020/12/28 07:40:07;;;;;;;18.73;11.43;;;4.50;97.30;;;;;;5010240;28;20041;-79
2020/12/28 07:42:34;;;;;;;19.63;11.73;;;4.60;97.30;;;;;;5015186;28;20478;-79
2020/12/28 07:45:07;;;;;;;20.13;12.30;;;4.60;97.30;;;;;;5050843;28;20045;-79
2020/12/28 07:47:53;;;;;;;17.85;10.73;;;4.60;97.20;;;;;;5032177;28;20107;-79
2020/12/28 07:50:21;;;;;;;15.93;10.13;;;4.60;97.20;;;;;;5048719;28;20033;-81
2020/12/28 07:53:16;;;;;;;21.43;12.57;;;4.70;97.20;;;;;;5030581;28;20040;-79
2020/12/28 07:55:50;;;;;;;18.03;10.33;;;4.60;97.10;;;;;;5032121;28;20060;-79
2020/12/28 07:58:41;;;;;;;21.17;10.70;;;4.60;97.00;;;;;;5021153;28;20033;-79
2020/12/28 08:01:18;;;;;;;12.67;9.13;;;4.60;97.00;;;;;;5044466;28;20052;-79
2020/12/28 08:03:47;;;;;;;18.98;11.10;;;4.60;97.00;;;;;;5031939;28;20037;-79
2020/12/28 08:06:15;;;;;;;20.27;10.73;;;4.60;97.00;;;;;;5048034;28;20398;-79
2020/12/28 08:08:42;;;;;;;15.57;9.38;;;4.60;96.90;;;;;;5033817;28;20036;-79
2020/12/28 08:11:09;;;;;;;11.37;8.70;;;4.60;96.90;;;;;;4999822;28;20064;-79
2020/12/28 08:13:37;;;;;;;15.40;9.07;;;4.60;96.90;;;;;;5017092;28;20488;-79
2020/12/28 08:16:21;;;;;;;12.10;8.13;;;4.60;96.90;;;;;;5021475;28;20036;-77
2020/12/28 08:18:49;;;;;;;10.33;6.43;;;4.60;96.90;;;;;;5034943;28;20045;-77
2020/12/28 08:21:16;;;;;;;12.23;6.97;;;4.60;96.90;;;;;;5048100;28;20087;-76
2020/12/28 08:23:56;;;;;;;19.77;9.15;;;4.60;96.90;;;;;;5017164;28;20055;-76
2020/12/28 08:26:27;;;;;;;9.37;6.90;;;4.60;96.80;;;;;;5063822;28;20032;-76
2020/12/28 08:28:55;;;;;;;9.10;5.68;;;4.60;96.80;;;;;;5058050;28;20047;-76
2020/12/28 08:31:31;;;;;;;10.60;6.97;;;4.60;96.90;;;;;;5035488;28;20485;-77
2020/12/28 08:34:02;;;;;;;10.33;6.90;;;4.60;96.80;;;;;;5065917;28;20036;-77
2020/12/28 08:36:29;;;;;;;13.33;6.90;;;4.60;96.70;;;;;;5052154;28;20044;-80
2020/12/28 08:38:57;;;;;;;11.13;6.93;;;4.60;96.80;;;;;;5052412;28;20040;-80
2020/12/28 08:41:23;;;;;;;10.30;6.83;;;4.60;96.70;;;;;;5051974;28;20037;-80
2020/12/28 08:43:50;;;;;;;15.02;8.35;;;4.60;96.80;;;;;;5051591;28;20037;-81
2020/12/28 08:46:23;;;;;;;12.75;7.75;;;4.60;96.70;;;;;;5036082;28;20037;-80
2020/12/28 08:48:49;;;;;;;10.53;7.90;;;4.60;96.40;;;;;;5051940;28;20476;-80
2020/12/28 08:51:17;;;;;;;9.57;7.03;;;4.60;96.40;;;;;;5005047;28;20825;-80
2020/12/28 08:53:48;;;;;;;15.90;10.40;;;4.50;96.40;;;;;;5052715;28;20037;-80
2020/12/28 08:56:16;;;;;;;10.47;7.83;;;4.50;96.40;;;;;;5035707;28;20033;-78
2020/12/28 08:58:44;;;;;;;14.33;7.93;;;4.60;96.50;;;;;;5053094;28;20068;-80
2020/12/28 09:01:11;;;;;;;9.57;7.15;;;4.60;96.50;;;;;;5050332;28;20035;-80
2020/12/28 09:03:38;;;;;;;12.13;8.17;;;4.70;96.50;;;;;;5051763;28;20378;-80
2020/12/28 09:06:05;;;;;;;26.50;15.20;;;4.70;96.50;;;;;;5053191;28;20041;-79
2020/12/28 09:08:32;;;;;;;14.02;9.43;;;4.80;96.50;;;;;;5032556;28;20029;-80
2020/12/28 09:10:59;;;;;;;9.35;7.80;;;4.90;96.50;;;;;;5043093;28;20494;-81
2020/12/28 09:13:25;;;;;;;13.07;7.53;;;4.90;96.40;;;;;;5016542;28;20049;-81
2020/12/28 09:15:52;;;;;;;11.73;7.80;;;4.80;96.30;;;;;;5035397;28;20443;-79
2020/12/28 09:18:18;;;;;;;12.40;8.15;;;4.80;96.30;;;;;;5033509;28;20052;-79
2020/12/28 09:20:45;;;;;;;9.52;7.25;;;4.80;96.40;;;;;;5052300;28;20056;-80
2020/12/28 09:23:12;;;;;;;11.43;8.70;;;4.70;96.50;;;;;;5051210;28;20389;-79
2020/12/28 09:25:38;;;;;;;13.13;9.18;;;4.70;96.50;;;;;;5054160;28;20044;-79
2020/12/28 09:28:05;;;;;;;10.77;7.90;;;4.60;96.40;;;;;;5052381;28;20033;-80
2020/12/28 09:30:31;;;;;;;12.65;8.57;;;4.60;96.50;;;;;;5035645;28;20033;-80
2020/12/28 09:32:58;;;;;;;12.43;8.23;;;4.50;96.60;;;;;;5047593;28;20697;-79
2020/12/28 09:35:24;;;;;;;8.55;6.88;;;4.60;96.80;;;;;;5051193;28;20616;-79
2020/12/28 09:37:50;;;;;;;11.80;8.55;;;4.60;96.80;;;;;;5036104;28;20400;-79
2020/12/28 09:40:17;;;;;;;13.43;8.50;;;4.70;96.90;;;;;;5038854;28;20047;-79
2020/12/28 09:42:44;;;;;;;11.23;7.97;;;4.70;97.00;;;;;;5045939;28;20060;-78
2020/12/28 09:47:55;;;;;;;8.63;6.45;;;5.00;97.20;;;;;;5049062;28;20494;-79
2020/12/28 09:50:21;;;;;;;9.00;6.18;;;5.10;97.10;;;;;;4980754;28;20476;-79
2020/12/28 09:52:48;;;;;;;7.47;6.17;;;5.20;97.10;;;;;;5048103;28;20040;-80
2020/12/28 09:55:14;;;;;;;10.43;7.45;;;5.30;96.90;;;;;;5058446;28;20505;-80
2020/12/28 09:57:41;;;;;;;10.27;6.72;;;5.40;96.80;;;;;;5007270;28;20404;-82
2020/12/28 10:00:07;;;;;;;11.23;7.65;;;5.60;96.80;;;;;;5021869;28;20032;-80
2020/12/28 10:02:34;;;;;;;13.30;8.70;;;5.60;96.60;;;;;;5032816;28;20040;-80
2020/12/28 10:05:01;;;;;;;10.45;5.93;;;5.70;96.60;;;;;;5039525;28;20045;-80
2020/12/28 10:07:27;;;;;;;7.97;5.30;;;5.80;96.50;;;;;;5045802;28;20029;-80
2020/12/28 10:09:54;;;;;;;10.27;5.90;;;5.90;96.40;;;;;;5030608;28;20032;-81
2020/12/28 10:12:20;;;;;;;5.97;3.97;;;6.00;96.40;;;;;;5031467;28;20034;-79
2020/12/28 10:14:47;;;;;;;5.90;4.03;;;6.10;95.90;;;;;;5017616;28;20060;-83
2020/12/28 10:17:13;;;;;;;7.75;3.72;;;6.20;96.10;;;;;;5049778;28;20033;-79
2020/12/28 10:19:40;;;;;;;10.05;4.00;;;6.40;96.30;;;;;;5019580;28;20037;-78
2020/12/28 10:22:07;;;;;;;7.40;4.47;;;6.50;96.10;;;;;;5048448;28;20480;-79
2020/12/28 10:24:34;;;;;;;14.60;9.18;;;6.60;95.90;;;;;;5001050;28;20051;-81
2020/12/28 10:27:00;;;;;;;4.90;3.17;;;6.70;96.10;;;;;;5051548;28;20037;-80
2020/12/28 10:29:27;;;;;;;4.32;1.77;;;6.90;96.00;;;;;;5032503;28;20044;-78
2020/12/28 10:31:57;;;;;;;7.07;1.67;;;7.10;96.00;;;;;;5048473;28;20048;-79
2020/12/28 10:34:27;;;;;;;2.90;1.88;;;7.30;95.90;;;;;;5049383;28;20040;-78
2020/12/28 10:36:53;;;;;;;3.00;1.67;;;7.50;95.60;;;;;;5050338;28;20051;-78
2020/12/28 10:39:20;;;;;;;4.78;1.65;;;7.60;95.00;;;;;;5050881;28;20037;-78
2020/12/28 10:41:47;;;;;;;5.20;1.67;;;7.50;94.70;;;;;;5015648;28;20049;-78
2020/12/28 10:44:13;;;;;;;4.00;1.98;;;7.30;93.60;;;;;;5051421;28;20415;-76
2020/12/28 10:46:40;;;;;;;6.55;2.47;;;7.10;93.50;;;;;;5053006;28;20052;-76
2020/12/28 10:49:07;;;;;;;4.30;2.28;;;7.00;93.50;;;;;;5049287;28;20052;-76
2020/12/28 10:51:34;;;;;;;2.88;1.52;;;7.00;93.40;;;;;;5047382;28;21261;-76
2020/12/28 10:54:00;;;;;;;3.20;1.80;;;7.00;93.50;;;;;;5048036;28;20430;-76
2020/12/28 10:56:29;;;;;;;2.70;1.45;;;6.90;93.30;;;;;;5018018;28;20044;-76
2020/12/28 10:58:56;;;;;;;4.32;1.83;;;6.70;93.30;;;;;;5046986;28;20500;-76
2020/12/28 11:01:25;;;;;;;4.70;1.52;;;6.60;93.40;;;;;;5047415;28;20025;-76
2020/12/28 11:03:52;;;;;;;5.03;2.20;;;6.50;93.50;;;;;;5049423;28;20032;-76
2020/12/28 11:06:20;;;;;;;3.72;2.38;;;6.30;93.60;;;;;;5050859;28;20036;-78
2020/12/28 11:08:47;;;;;;;5.38;1.70;;;6.20;93.60;;;;;;5050243;28;20041;-78
2020/12/28 11:11:17;;;;;;;5.85;1.83;;;6.10;93.50;;;;;;5055485;28;20048;-78
2020/12/28 11:13:45;;;;;;;6.15;1.90;;;6.00;93.20;;;;;;5049995;28;20578;-78
2020/12/28 11:16:12;;;;;;;5.00;2.35;;;5.90;93.50;;;;;;5032562;28;20044;-78
2020/12/28 11:18:39;;;;;;;4.55;1.50;;;5.90;93.60;;;;;;5052764;28;20045;-78
2020/12/28 11:21:07;;;;;;;5.25;2.20;;;5.80;93.60;;;;;;5050567;28;20784;-78
2020/12/28 11:26:23;;;;;;;4.45;2.38;;;5.70;93.80;;;;;;5055777;28;20055;-79
2020/12/28 11:28:49;;;;;;;5.05;2.00;;;5.60;93.90;;;;;;5015074;28;20428;-79
2020/12/28 11:31:17;;;;;;;5.38;2.17;;;5.60;94.00;;;;;;5057128;28;20248;-81
2020/12/28 11:33:44;;;;;;;6.47;2.85;;;5.60;93.80;;;;;;5029030;28;20045;-80
2020/12/28 11:36:12;;;;;;;6.57;2.60;;;5.50;93.60;;;;;;5046555;28;20032;-80
2020/12/28 11:38:39;;;;;;;7.20;3.53;;;5.50;93.70;;;;;;5046540;28;20044;-80
2020/12/28 11:41:05;;;;;;;5.53;2.67;;;5.50;93.80;;;;;;5048669;28;20053;-81
2020/12/28 11:43:32;;;;;;;7.05;2.85;;;5.50;93.70;;;;;;5032178;28;20048;-80
2020/12/28 11:45:58;;;;;;;8.38;3.20;;;5.50;93.70;;;;;;5030762;28;20033;-79
2020/12/28 11:48:25;;;;;;;6.85;2.17;;;5.50;93.50;;;;;;5032358;28;20036;-80
2020/12/28 11:50:51;;;;;;;7.20;2.30;;;5.50;93.60;;;;;;5036042;28;20059;-80
2020/12/28 11:53:17;;;;;;;6.25;2.15;;;5.50;93.70;;;;;;5049804;28;20037;-80
2020/12/28 11:58:34;;;;;;;2.53;1.13;;;5.50;93.60;;;;;;5036096;28;20037;-80
2020/12/28 12:01:02;;;;;;;3.78;1.20;;;5.50;93.70;;;;;;5044769;28;20039;-80
2020/12/28 12:03:29;;;;;;;4.40;1.30;;;5.50;93.80;;;;;;5014440;28;20033;-81
2020/12/28 12:05:57;;;;;;;4.55;1.23;;;5.60;93.90;;;;;;5050469;28;20031;-80
2020/12/28 12:08:24;;;;;;;3.42;1.58;;;5.60;94.00;;;;;;5035808;28;20064;-79
2020/12/28 12:10:51;;;;;;;6.32;1.27;;;5.60;93.80;;;;;;5049669;28;20052;-81
2020/12/28 12:13:18;;;;;;;3.03;1.15;;;5.70;93.70;;;;;;5048485;28;20049;-80
2020/12/28 12:15:46;;;;;;;3.90;1.10;;;5.60;93.70;;;;;;5045561;28;20044;-79
2020/12/28 12:18:13;;;;;;;2.92;1.17;;;5.70;93.80;;;;;;5049546;28;20045;-81
2020/12/28 12:20:40;;;;;;;7.13;1.73;;;5.70;93.80;;;;;;5041861;28;20068;-79
2020/12/28 12:23:07;;;;;;;5.50;1.05;;;5.70;93.60;;;;;;5038948;28;20040;-80
2020/12/28 12:25:34;;;;;;;3.45;0.90;;;5.80;93.70;;;;;;5045668;28;20033;-79
2020/12/28 12:28:01;;;;;;;2.92;1.25;;;5.80;93.70;;;;;;5046269;28;20079;-80
2020/12/28 12:30:30;;;;;;;3.67;1.60;;;5.80;93.80;;;;;;5047681;28;20364;-79
2020/12/28 12:33:00;;;;;;;3.22;1.30;;;5.80;93.60;;;;;;5046067;28;20060;-79
2020/12/28 12:35:26;;;;;;;3.22;1.58;;;5.80;93.10;;;;;;5044891;28;20037;-79
2020/12/28 12:37:53;;;;;;;3.47;1.30;;;5.90;93.20;;;;;;5030961;28;20057;-79
2020/12/28 12:40:19;;;;;;;2.85;0.88;;;5.90;93.30;;;;;;5032270;28;20108;-79
2020/12/28 12:42:46;;;;;;;3.97;0.90;;;5.90;93.40;;;;;;5024880;28;20046;-79
2020/12/28 12:45:12;;;;;;;4.82;1.10;;;5.90;93.50;;;;;;5044773;28;20036;-79
2020/12/28 12:47:39;;;;;;;3.83;0.80;;;6.00;93.20;;;;;;5028652;28;20091;-79
2020/12/28 12:50:06;;;;;;;2.83;0.80;;;6.00;93.00;;;;;;5045979;28;20067;-81
2020/12/28 12:52:32;;;;;;;3.80;0.82;;;5.90;92.80;;;;;;5010543;28;20465;-80
2020/12/28 12:54:59;;;;;;;3.75;0.70;;;6.00;92.50;;;;;;5046288;28;20044;-80
2020/12/28 12:57:26;;;;;;;2.97;0.70;;;6.00;92.70;;;;;;5028217;28;20047;-80
2020/12/28 13:00:04;;;;;;;2.38;0.60;;;6.00;92.80;;;;;;5045766;28;20048;-80
2020/12/28 13:02:35;;;;;;;4.60;0.90;;;6.00;92.90;;;;;;5045327;28;20041;-81
2020/12/28 13:05:04;;;;;;;3.78;0.73;;;6.00;92.80;;;;;;5050051;28;20119;-80
2020/12/28 13:07:33;;;;;;;4.30;1.20;;;5.90;92.80;;;;;;5046802;28;19916;-80
2020/12/28 13:10:00;;;;;;;2.85;0.70;;;6.00;92.80;;;;;;5032721;28;20041;-80
2020/12/28 13:12:26;;;;;;;4.03;1.20;;;6.00;93.00;;;;;;5045913;28;20032;-81
2020/12/28 13:14:53;;;;;;;4.25;1.30;;;6.00;92.80;;;;;;5013688;28;20036;-80
2020/12/28 13:17:20;;;;;;;4.03;1.30;;;6.10;92.60;;;;;;5048380;28;20049;-80